CFTIW CYTR-CYQB
Flight info
| Callsign | CFTIW |
|---|---|
| Flight time | N/A |
| Altitude | 5000 |
| Route | DCT |
| Aircraft | BE58/L-SDE3/1200 |
Departure
| Time | N/A |
|---|---|
| Airport | CFB Trenton (CYTR) |
Arrival
| Time | 2026-05-09 14:53 |
|---|---|
| Airport | Quebec Jean Lesage International Airport (CYQB) |
| Time | Latitude | Longitude | Altitude | Speed | Heading |
|---|---|---|---|---|---|
| 2026-05-09 13:01 | 44.74169 | -76.21248 | 5003 ft | 176 kts | 59° |
| 2026-05-09 13:01 | 44.74838 | -76.19802 | 5006 ft | 176 kts | 60° |
| 2026-05-09 13:01 | 44.75509 | -76.18351 | 5006 ft | 177 kts | 60° |
| 2026-05-09 13:02 | 44.76170 | -76.16920 | 5006 ft | 177 kts | 60° |
| 2026-05-09 13:02 | 44.76839 | -76.15472 | 5004 ft | 177 kts | 60° |
| 2026-05-09 13:02 | 44.77507 | -76.14025 | 5006 ft | 176 kts | 60° |
| 2026-05-09 13:02 | 44.78174 | -76.12579 | 5005 ft | 176 kts | 60° |
| 2026-05-09 13:03 | 44.78842 | -76.11129 | 5007 ft | 176 kts | 60° |
| 2026-05-09 13:03 | 44.79507 | -76.09673 | 5008 ft | 176 kts | 60° |
| 2026-05-09 13:03 | 44.80180 | -76.08225 | 5017 ft | 179 kts | 59° |
| 2026-05-09 13:03 | 44.80857 | -76.06765 | 5023 ft | 178 kts | 60° |
| 2026-05-09 13:04 | 44.81531 | -76.05294 | 5006 ft | 178 kts | 60° |
| 2026-05-09 13:04 | 44.82201 | -76.03836 | 5023 ft | 178 kts | 60° |
| 2026-05-09 13:04 | 44.82797 | -76.02311 | 5020 ft | 176 kts | 78° |
| 2026-05-09 13:04 | 44.82901 | -76.00600 | 5012 ft | 176 kts | 90° |
| 2026-05-09 13:05 | 44.83142 | -75.98911 | 5007 ft | 177 kts | 71° |
| 2026-05-09 13:05 | 44.83748 | -75.97384 | 5000 ft | 180 kts | 59° |
| 2026-05-09 13:05 | 44.84428 | -75.95911 | 5022 ft | 179 kts | 60° |
| 2026-05-09 13:05 | 44.85103 | -75.94431 | 5020 ft | 179 kts | 60° |
| 2026-05-09 13:06 | 44.85787 | -75.92948 | 5011 ft | 180 kts | 60° |
| 2026-05-09 13:06 | 44.86449 | -75.91453 | 5007 ft | 180 kts | 60° |
| 2026-05-09 13:06 | 44.87109 | -75.89970 | 5008 ft | 178 kts | 60° |
| 2026-05-09 13:06 | 44.87759 | -75.88514 | 5008 ft | 178 kts | 60° |
| 2026-05-09 13:07 | 44.88421 | -75.87048 | 5005 ft | 177 kts | 60° |
| 2026-05-09 13:07 | 44.89083 | -75.85578 | 5012 ft | 179 kts | 60° |
| 2026-05-09 13:07 | 44.89744 | -75.84098 | 5013 ft | 178 kts | 60° |
| 2026-05-09 13:07 | 44.90404 | -75.82624 | 5003 ft | 177 kts | 60° |
| 2026-05-09 13:08 | 44.91065 | -75.81153 | 5009 ft | 178 kts | 61° |
| 2026-05-09 13:08 | 44.91722 | -75.79679 | 5005 ft | 177 kts | 60° |
| 2026-05-09 13:08 | 44.92380 | -75.78213 | 5002 ft | 177 kts | 60° |
| 2026-05-09 13:08 | 44.93035 | -75.76747 | 5002 ft | 176 kts | 60° |
| 2026-05-09 13:09 | 44.93688 | -75.75284 | 4999 ft | 176 kts | 60° |
| 2026-05-09 13:09 | 44.94349 | -75.73829 | 4995 ft | 177 kts | 58° |
| 2026-05-09 13:09 | 44.95076 | -75.72426 | 4997 ft | 178 kts | 56° |
| 2026-05-09 13:09 | 44.95793 | -75.71010 | 5005 ft | 177 kts | 57° |
| 2026-05-09 13:10 | 44.96500 | -75.69579 | 4998 ft | 177 kts | 57° |
| 2026-05-09 13:10 | 44.97209 | -75.68157 | 5005 ft | 177 kts | 57° |
| 2026-05-09 13:10 | 44.97917 | -75.66723 | 5004 ft | 178 kts | 58° |
| 2026-05-09 13:10 | 44.98624 | -75.65291 | 5006 ft | 178 kts | 57° |
| 2026-05-09 13:11 | 44.99333 | -75.63865 | 5010 ft | 177 kts | 57° |
| 2026-05-09 13:11 | 45.00031 | -75.62456 | 5010 ft | 178 kts | 57° |
| 2026-05-09 13:11 | 45.00740 | -75.61022 | 5009 ft | 178 kts | 58° |
| 2026-05-09 13:11 | 45.01458 | -75.59571 | 5006 ft | 178 kts | 57° |
| 2026-05-09 13:12 | 45.02165 | -75.58142 | 5006 ft | 177 kts | 57° |
| 2026-05-09 13:12 | 45.02890 | -75.56761 | 5003 ft | 178 kts | 46° |
| 2026-05-09 13:12 | 45.03901 | -75.55768 | 5004 ft | 178 kts | 32° |
| 2026-05-09 13:12 | 45.04963 | -75.54862 | 5005 ft | 178 kts | 30° |
| 2026-05-09 13:13 | 45.06055 | -75.54027 | 5006 ft | 178 kts | 28° |
| 2026-05-09 13:13 | 45.06394 | -75.53782 | 5007 ft | 179 kts | 27° |
| 2026-05-09 13:13 | 45.07423 | -75.52821 | 5010 ft | 177 kts | 45° |
| 2026-05-09 13:13 | 45.08171 | -75.51452 | 5013 ft | 176 kts | 60° |
| 2026-05-09 13:14 | 45.08814 | -75.49982 | 5016 ft | 176 kts | 60° |
| 2026-05-09 13:14 | 45.09476 | -75.48520 | 5017 ft | 176 kts | 59° |
| 2026-05-09 13:16 | 45.14227 | -75.38209 | 5017 ft | 181 kts | 60° |
| 2026-05-09 13:16 | 45.14904 | -75.36713 | 5020 ft | 181 kts | 59° |
| 2026-05-09 13:16 | 45.15584 | -75.35220 | 5016 ft | 180 kts | 59° |
| 2026-05-09 13:16 | 45.16267 | -75.33740 | 5018 ft | 179 kts | 59° |
| 2026-05-09 13:17 | 45.16948 | -75.32258 | 5016 ft | 179 kts | 59° |
| 2026-05-09 13:17 | 45.17625 | -75.30777 | 5020 ft | 180 kts | 59° |
| 2026-05-09 13:17 | 45.18309 | -75.29280 | 5021 ft | 180 kts | 59° |
| 2026-05-09 13:17 | 45.18982 | -75.27818 | 5013 ft | 179 kts | 59° |
| 2026-05-09 13:18 | 45.19664 | -75.26332 | 5014 ft | 180 kts | 59° |
| 2026-05-09 13:18 | 45.20346 | -75.24842 | 5017 ft | 181 kts | 61° |
| 2026-05-09 13:18 | 45.21021 | -75.23339 | 5019 ft | 181 kts | 59° |
| 2026-05-09 13:18 | 45.21705 | -75.21847 | 5032 ft | 180 kts | 59° |
| 2026-05-09 13:19 | 45.22398 | -75.20348 | 5024 ft | 182 kts | 59° |
| 2026-05-09 13:19 | 45.23085 | -75.18839 | 5026 ft | 182 kts | 59° |
| 2026-05-09 13:19 | 45.23773 | -75.17327 | 5022 ft | 182 kts | 59° |
| 2026-05-09 13:19 | 45.24456 | -75.15833 | 5022 ft | 180 kts | 59° |
| 2026-05-09 13:20 | 45.25138 | -75.14327 | 5015 ft | 181 kts | 59° |
| 2026-05-09 13:20 | 45.25820 | -75.12830 | 5021 ft | 180 kts | 59° |
| 2026-05-09 13:20 | 45.26500 | -75.11341 | 5015 ft | 179 kts | 59° |
| 2026-05-09 13:20 | 45.27181 | -75.09850 | 5015 ft | 181 kts | 59° |
| 2026-05-09 13:21 | 45.27860 | -75.08346 | 5016 ft | 180 kts | 60° |
| 2026-05-09 13:21 | 45.28540 | -75.06851 | 5024 ft | 180 kts | 59° |
| 2026-05-09 13:21 | 45.29218 | -75.05358 | 5021 ft | 179 kts | 59° |
| 2026-05-09 13:21 | 45.29894 | -75.03871 | 5016 ft | 179 kts | 59° |
| 2026-05-09 13:22 | 45.30560 | -75.02402 | 5016 ft | 179 kts | 59° |
| 2026-05-09 13:22 | 45.31234 | -75.00912 | 5025 ft | 180 kts | 59° |
| 2026-05-09 13:22 | 45.31924 | -74.99381 | 5017 ft | 181 kts | 59° |
| 2026-05-09 13:23 | 45.34642 | -74.93377 | 5026 ft | 183 kts | 59° |
| 2026-05-09 13:23 | 45.35333 | -74.91852 | 5028 ft | 182 kts | 59° |
| 2026-05-09 13:24 | 45.36016 | -74.90343 | 5026 ft | 181 kts | 59° |
| 2026-05-09 13:24 | 45.36696 | -74.88828 | 5031 ft | 182 kts | 60° |
| 2026-05-09 13:24 | 45.37381 | -74.87313 | 5033 ft | 181 kts | 59° |
| 2026-05-09 13:24 | 45.38065 | -74.85800 | 5032 ft | 183 kts | 60° |
| 2026-05-09 13:25 | 45.38759 | -74.84276 | 5026 ft | 182 kts | 59° |
| 2026-05-09 13:25 | 45.39436 | -74.82766 | 5027 ft | 181 kts | 59° |
| 2026-05-09 13:25 | 45.40795 | -74.79737 | 5029 ft | 181 kts | 59° |
| 2026-05-09 13:26 | 45.41476 | -74.78232 | 5036 ft | 182 kts | 58° |
| 2026-05-09 13:26 | 45.42159 | -74.76712 | 5035 ft | 183 kts | 59° |
| 2026-05-09 13:26 | 45.42841 | -74.75173 | 5032 ft | 183 kts | 59° |
| 2026-05-09 13:26 | 45.43526 | -74.73652 | 5031 ft | 182 kts | 59° |
| 2026-05-09 13:27 | 45.44211 | -74.72141 | 5044 ft | 182 kts | 60° |
| 2026-05-09 13:27 | 45.44892 | -74.70615 | 5046 ft | 183 kts | 59° |
| 2026-05-09 13:27 | 45.45580 | -74.69070 | 5031 ft | 185 kts | 59° |
| 2026-05-09 13:27 | 45.46275 | -74.67541 | 5035 ft | 182 kts | 59° |
| 2026-05-09 13:28 | 45.46729 | -74.66538 | 5032 ft | 181 kts | 59° |
| 2026-05-09 13:28 | 45.47405 | -74.65016 | 5031 ft | 182 kts | 60° |
| 2026-05-09 13:28 | 45.48083 | -74.63481 | 5032 ft | 184 kts | 60° |
| 2026-05-09 13:28 | 45.48988 | -74.61461 | 5046 ft | 183 kts | 59° |
| 2026-05-09 13:29 | 45.49680 | -74.59930 | 5039 ft | 183 kts | 59° |
| 2026-05-09 13:29 | 45.50369 | -74.58398 | 5035 ft | 183 kts | 60° |
| 2026-05-09 13:29 | 45.51036 | -74.56860 | 5033 ft | 182 kts | 61° |
| 2026-05-09 13:29 | 45.51712 | -74.55334 | 5037 ft | 182 kts | 59° |
| 2026-05-09 13:30 | 45.52179 | -74.54305 | 5033 ft | 184 kts | 59° |
| 2026-05-09 13:30 | 45.52876 | -74.52766 | 5044 ft | 184 kts | 60° |
| 2026-05-09 13:30 | 45.53552 | -74.51244 | 5047 ft | 184 kts | 60° |
| 2026-05-09 13:30 | 45.54237 | -74.49699 | 5047 ft | 185 kts | 60° |
| 2026-05-09 13:31 | 45.54934 | -74.48147 | 5038 ft | 185 kts | 60° |
| 2026-05-09 13:31 | 45.55612 | -74.46603 | 5040 ft | 183 kts | 60° |
| 2026-05-09 13:31 | 45.56298 | -74.45072 | 5043 ft | 183 kts | 60° |
| 2026-05-09 13:31 | 45.56977 | -74.43533 | 5037 ft | 183 kts | 60° |
| 2026-05-09 13:32 | 45.57671 | -74.41970 | 4852 ft | 191 kts | 60° |
| 2026-05-09 13:32 | 45.59119 | -74.38686 | 4339 ft | 196 kts | 60° |
| 2026-05-09 13:32 | 45.59855 | -74.37056 | 4081 ft | 194 kts | 60° |
| 2026-05-09 13:33 | 45.60580 | -74.35426 | 3822 ft | 194 kts | 59° |
| 2026-05-09 13:33 | 45.61299 | -74.33790 | 3564 ft | 194 kts | 61° |
| 2026-05-09 13:33 | 45.62017 | -74.32160 | 3300 ft | 194 kts | 61° |
| 2026-05-09 13:33 | 45.62742 | -74.30528 | 3037 ft | 190 kts | 61° |
| 2026-05-09 13:34 | 45.63431 | -74.28965 | 2797 ft | 186 kts | 60° |
| 2026-05-09 13:34 | 45.64119 | -74.27412 | 2549 ft | 181 kts | 62° |
| 2026-05-09 13:34 | 45.64785 | -74.25903 | 2314 ft | 180 kts | 62° |
| 2026-05-09 13:34 | 45.65452 | -74.24409 | 2085 ft | 178 kts | 62° |
| 2026-05-09 13:35 | 45.66112 | -74.22925 | 1843 ft | 174 kts | 58° |
| 2026-05-09 13:35 | 45.66759 | -74.21501 | 1602 ft | 168 kts | 63° |
| 2026-05-09 13:35 | 45.67349 | -74.20064 | 1379 ft | 167 kts | 62° |
| 2026-05-09 13:35 | 45.67891 | -74.18672 | 1155 ft | 154 kts | 73° |
| 2026-05-09 13:36 | 45.68037 | -74.17330 | 1149 ft | 123 kts | 94° |
| 2026-05-09 13:36 | 45.67958 | -74.16252 | 1131 ft | 101 kts | 110° |
| 2026-05-09 13:36 | 45.67787 | -74.15269 | 1088 ft | 103 kts | 105° |
| 2026-05-09 13:36 | 45.67676 | -74.14326 | 996 ft | 85 kts | 101° |
| 2026-05-09 13:37 | 45.67587 | -74.13541 | 809 ft | 78 kts | 99° |
| 2026-05-09 13:37 | 45.67501 | -74.12787 | 717 ft | 76 kts | 101° |
| 2026-05-09 13:37 | 45.67407 | -74.12026 | 624 ft | 78 kts | 99° |
| 2026-05-09 13:37 | 45.67326 | -74.11264 | 572 ft | 79 kts | 100° |
| 2026-05-09 13:38 | 45.67248 | -74.10484 | 536 ft | 80 kts | 99° |
| 2026-05-09 13:38 | 45.67166 | -74.09685 | 457 ft | 82 kts | 100° |
| 2026-05-09 13:38 | 45.67073 | -74.08870 | 317 ft | 83 kts | 100° |
| 2026-05-09 13:38 | 45.66995 | -74.08108 | 260 ft | 70 kts | 98° |
| 2026-05-09 13:39 | 45.66943 | -74.07615 | 255 ft | 24 kts | 98° |
| 2026-05-09 13:39 | 45.66927 | -74.07390 | 256 ft | 24 kts | 87° |
| 2026-05-09 13:39 | 45.66904 | -74.07193 | 258 ft | 27 kts | 105° |
| 2026-05-09 13:39 | 45.66876 | -74.06973 | 261 ft | 20 kts | 97° |
| 2026-05-09 13:40 | 45.66850 | -74.06747 | 265 ft | 21 kts | 98° |
| 2026-05-09 13:40 | 45.66828 | -74.06532 | 265 ft | 24 kts | 98° |
| 2026-05-09 13:40 | 45.66802 | -74.06271 | 266 ft | 28 kts | 102° |
| 2026-05-09 13:40 | 45.66771 | -74.06008 | 265 ft | 22 kts | 94° |
| 2026-05-09 13:41 | 45.66765 | -74.05767 | 265 ft | 25 kts | 79° |
| 2026-05-09 13:41 | 45.66815 | -74.05561 | 266 ft | 22 kts | 69° |
| 2026-05-09 13:41 | 45.66889 | -74.05305 | 269 ft | 34 kts | 66° |
| 2026-05-09 13:41 | 45.66975 | -74.04980 | 271 ft | 29 kts | 68° |
| 2026-05-09 13:42 | 45.67045 | -74.04740 | 271 ft | 26 kts | 68° |
| 2026-05-09 13:42 | 45.67078 | -74.04504 | 272 ft | 17 kts | 91° |
| 2026-05-09 13:42 | 45.67152 | -74.04439 | 272 ft | 19 kts | 323° |
| 2026-05-09 13:42 | 45.67203 | -74.04645 | 271 ft | 28 kts | 279° |
| 2026-05-09 13:43 | 45.67234 | -74.04986 | 270 ft | 38 kts | 278° |
| 2026-05-09 13:43 | 45.67267 | -74.05301 | 268 ft | 22 kts | 277° |
| 2026-05-09 13:43 | 45.67323 | -74.05433 | 268 ft | 15 kts | 10° |
| 2026-05-09 13:43 | 45.67429 | -74.05411 | 267 ft | 21 kts | 6° |
| 2026-05-09 13:44 | 45.67531 | -74.05418 | 267 ft | 11 kts | 309° |
| 2026-05-09 13:44 | 45.67542 | -74.05465 | 267 ft | 0 kts | 279° |
| 2026-05-09 13:58 | 45.67540 | -74.05448 | 267 ft | 2 kts | 279° |
| 2026-05-09 13:58 | 45.67538 | -74.05426 | 267 ft | 2 kts | 279° |
| 2026-05-09 13:58 | 45.67536 | -74.05404 | 267 ft | 2 kts | 279° |
| 2026-05-09 13:59 | 45.67534 | -74.05388 | 267 ft | 0 kts | 279° |
| 2026-05-09 13:59 | 45.67533 | -74.05398 | 267 ft | 5 kts | 237° |
| 2026-05-09 13:59 | 45.67472 | -74.05401 | 267 ft | 10 kts | 184° |
| 2026-05-09 14:00 | 45.67383 | -74.05416 | 267 ft | 16 kts | 188° |
| 2026-05-09 14:00 | 45.67347 | -74.05423 | 268 ft | 16 kts | 187° |
| 2026-05-09 14:00 | 45.67269 | -74.05293 | 268 ft | 16 kts | 97° |
| 2026-05-09 14:00 | 45.67247 | -74.05094 | 269 ft | 19 kts | 96° |
| 2026-05-09 14:01 | 45.67229 | -74.04908 | 270 ft | 22 kts | 100° |
| 2026-05-09 14:01 | 45.67208 | -74.04707 | 271 ft | 20 kts | 98° |
| 2026-05-09 14:01 | 45.67187 | -74.04507 | 271 ft | 18 kts | 99° |
| 2026-05-09 14:01 | 45.67170 | -74.04322 | 272 ft | 20 kts | 96° |
| 2026-05-09 14:02 | 45.67141 | -74.04162 | 272 ft | 15 kts | 133° |
| 2026-05-09 14:02 | 45.67059 | -74.04138 | 272 ft | 13 kts | 134° |
| 2026-05-09 14:02 | 45.67064 | -74.04017 | 272 ft | 16 kts | 71° |
| 2026-05-09 14:02 | 45.67118 | -74.03811 | 270 ft | 26 kts | 69° |
| 2026-05-09 14:03 | 45.67172 | -74.03598 | 268 ft | 18 kts | 69° |
| 2026-05-09 14:03 | 45.67223 | -74.03398 | 266 ft | 22 kts | 70° |
| 2026-05-09 14:03 | 45.67265 | -74.03232 | 264 ft | 16 kts | 72° |
| 2026-05-09 14:03 | 45.67290 | -74.03095 | 263 ft | 17 kts | 99° |
| 2026-05-09 14:04 | 45.67223 | -74.03008 | 263 ft | 14 kts | 156° |
| 2026-05-09 14:04 | 45.67177 | -74.02894 | 262 ft | 14 kts | 91° |
| 2026-05-09 14:04 | 45.67166 | -74.02755 | 261 ft | 13 kts | 81° |
| 2026-05-09 14:04 | 45.67201 | -74.02633 | 260 ft | 14 kts | 67° |
| 2026-05-09 14:05 | 45.67245 | -74.02566 | 260 ft | 10 kts | 30° |
| 2026-05-09 14:05 | 45.67284 | -74.02478 | 260 ft | 8 kts | 109° |
| 2026-05-09 14:05 | 45.67215 | -74.02431 | 260 ft | 19 kts | 182° |
| 2026-05-09 14:05 | 45.67131 | -74.02424 | 260 ft | 8 kts | 139° |
| 2026-05-09 14:06 | 45.67094 | -74.02353 | 259 ft | 3 kts | 100° |
| 2026-05-09 14:06 | 45.67092 | -74.02322 | 259 ft | 6 kts | 93° |
| 2026-05-09 14:06 | 45.67093 | -74.02243 | 259 ft | 9 kts | 97° |
| 2026-05-09 14:06 | 45.67077 | -74.02145 | 258 ft | 7 kts | 77° |
| 2026-05-09 14:07 | 45.67172 | -74.01990 | 257 ft | 49 kts | 44° |
| 2026-05-09 14:07 | 45.67598 | -74.01437 | 397 ft | 101 kts | 45° |
| 2026-05-09 14:07 | 45.68109 | -74.00810 | 1051 ft | 96 kts | 39° |
| 2026-05-09 14:07 | 45.68776 | -74.00351 | 1620 ft | 119 kts | 25° |
| 2026-05-09 14:08 | 45.69556 | -73.99742 | 2150 ft | 132 kts | 39° |
| 2026-05-09 14:08 | 45.70236 | -73.98819 | 2726 ft | 139 kts | 54° |
| 2026-05-09 14:08 | 45.70771 | -73.97627 | 3312 ft | 146 kts | 64° |
| 2026-05-09 14:08 | 45.71285 | -73.96401 | 3895 ft | 142 kts | 62° |
| 2026-05-09 14:09 | 45.71811 | -73.95183 | 4484 ft | 143 kts | 62° |
| 2026-05-09 14:09 | 45.72346 | -73.93956 | 4985 ft | 151 kts | 61° |
| 2026-05-09 14:09 | 45.72954 | -73.92536 | 5014 ft | 179 kts | 62° |
| 2026-05-09 14:09 | 45.73644 | -73.90961 | 5015 ft | 194 kts | 60° |
| 2026-05-09 14:10 | 45.75109 | -73.87616 | 5014 ft | 201 kts | 60° |
| 2026-05-09 14:10 | 45.75856 | -73.85915 | 5011 ft | 202 kts | 60° |
| 2026-05-09 14:10 | 45.76598 | -73.84226 | 5012 ft | 199 kts | 60° |
| 2026-05-09 14:11 | 45.77323 | -73.82569 | 5016 ft | 198 kts | 61° |
| 2026-05-09 14:11 | 45.77970 | -73.81083 | 5007 ft | 198 kts | 60° |
| 2026-05-09 14:11 | 45.78171 | -73.80627 | 5009 ft | 198 kts | 60° |
| 2026-05-09 14:11 | 45.78907 | -73.78956 | 5011 ft | 198 kts | 61° |
| 2026-05-09 14:12 | 45.79631 | -73.77281 | 5011 ft | 198 kts | 61° |
| 2026-05-09 14:12 | 45.80360 | -73.75612 | 5013 ft | 196 kts | 61° |
| 2026-05-09 14:12 | 45.81081 | -73.73959 | 5002 ft | 194 kts | 60° |
| 2026-05-09 14:12 | 45.81791 | -73.72326 | 5002 ft | 192 kts | 60° |
| 2026-05-09 14:13 | 45.82498 | -73.70708 | 5007 ft | 191 kts | 60° |
| 2026-05-09 14:14 | 45.87475 | -73.59237 | 5005 ft | 194 kts | 61° |
| 2026-05-09 14:15 | 45.88191 | -73.57597 | 5006 ft | 194 kts | 60° |
| 2026-05-09 14:15 | 45.88903 | -73.55952 | 5012 ft | 195 kts | 60° |
| 2026-05-09 14:15 | 45.89617 | -73.54297 | 5007 ft | 195 kts | 61° |
| 2026-05-09 14:15 | 45.90328 | -73.52637 | 5013 ft | 196 kts | 61° |
| 2026-05-09 14:16 | 45.91048 | -73.50987 | 5005 ft | 194 kts | 60° |
| 2026-05-09 14:16 | 45.91761 | -73.49354 | 5009 ft | 192 kts | 61° |
| 2026-05-09 14:16 | 45.92225 | -73.48277 | 5019 ft | 192 kts | 61° |
| 2026-05-09 14:16 | 45.92927 | -73.46645 | 5004 ft | 191 kts | 61° |
| 2026-05-09 14:17 | 45.93626 | -73.45022 | 5005 ft | 191 kts | 61° |
| 2026-05-09 14:17 | 45.94326 | -73.43398 | 5006 ft | 191 kts | 60° |
| 2026-05-09 14:17 | 45.95029 | -73.41774 | 5014 ft | 192 kts | 61° |
| 2026-05-09 14:17 | 45.95735 | -73.40135 | 5021 ft | 195 kts | 61° |
| 2026-05-09 14:18 | 45.96450 | -73.38463 | 5015 ft | 196 kts | 61° |
| 2026-05-09 14:18 | 45.97158 | -73.36803 | 5011 ft | 195 kts | 60° |
| 2026-05-09 14:18 | 45.97875 | -73.35147 | 5012 ft | 194 kts | 60° |
| 2026-05-09 14:18 | 45.98579 | -73.33509 | 5010 ft | 192 kts | 60° |
| 2026-05-09 14:19 | 45.99280 | -73.31876 | 5006 ft | 191 kts | 60° |
| 2026-05-09 14:19 | 45.99978 | -73.30251 | 5008 ft | 191 kts | 60° |
| 2026-05-09 14:19 | 46.00675 | -73.28626 | 5003 ft | 191 kts | 61° |
| 2026-05-09 14:19 | 46.01371 | -73.27002 | 5007 ft | 191 kts | 60° |
| 2026-05-09 14:20 | 46.02070 | -73.25369 | 5014 ft | 192 kts | 60° |
| 2026-05-09 14:20 | 46.02774 | -73.23721 | 5012 ft | 193 kts | 60° |
| 2026-05-09 14:20 | 46.03479 | -73.22082 | 5024 ft | 193 kts | 60° |
| 2026-05-09 14:21 | 46.04892 | -73.18769 | 5015 ft | 193 kts | 61° |
| 2026-05-09 14:21 | 46.05596 | -73.17126 | 5013 ft | 192 kts | 60° |
| 2026-05-09 14:21 | 46.06295 | -73.15489 | 5010 ft | 192 kts | 61° |
| 2026-05-09 14:21 | 46.06992 | -73.13857 | 5012 ft | 191 kts | 61° |
| 2026-05-09 14:22 | 46.07686 | -73.12224 | 5022 ft | 192 kts | 61° |
| 2026-05-09 14:22 | 46.08388 | -73.10578 | 5013 ft | 192 kts | 61° |
| 2026-05-09 14:22 | 46.09088 | -73.08931 | 5031 ft | 193 kts | 61° |
| 2026-05-09 14:22 | 46.09790 | -73.07266 | 5014 ft | 194 kts | 61° |
| 2026-05-09 14:23 | 46.10496 | -73.05623 | 5015 ft | 192 kts | 60° |
| 2026-05-09 14:23 | 46.11194 | -73.03986 | 5016 ft | 191 kts | 61° |
| 2026-05-09 14:23 | 46.11892 | -73.02355 | 5009 ft | 191 kts | 61° |
| 2026-05-09 14:23 | 46.12577 | -73.00721 | 5014 ft | 191 kts | 61° |
| 2026-05-09 14:24 | 46.13270 | -72.99084 | 5012 ft | 191 kts | 61° |
| 2026-05-09 14:24 | 46.13964 | -72.97454 | 5007 ft | 191 kts | 61° |
| 2026-05-09 14:24 | 46.14655 | -72.95825 | 5011 ft | 191 kts | 60° |
| 2026-05-09 14:24 | 46.15347 | -72.94191 | 5013 ft | 191 kts | 61° |
| 2026-05-09 14:25 | 46.16039 | -72.92558 | 5011 ft | 191 kts | 61° |
| 2026-05-09 14:25 | 46.16730 | -72.90923 | 5009 ft | 191 kts | 61° |
| 2026-05-09 14:25 | 46.17422 | -72.89288 | 5009 ft | 191 kts | 60° |
| 2026-05-09 14:25 | 46.18113 | -72.87650 | 5011 ft | 191 kts | 61° |
| 2026-05-09 14:26 | 46.18797 | -72.86032 | 5013 ft | 191 kts | 60° |
| 2026-05-09 14:26 | 46.19488 | -72.84393 | 5014 ft | 191 kts | 61° |
| 2026-05-09 14:26 | 46.20179 | -72.82757 | 5016 ft | 191 kts | 61° |
| 2026-05-09 14:26 | 46.20869 | -72.81119 | 5014 ft | 191 kts | 60° |
| 2026-05-09 14:27 | 46.21558 | -72.79484 | 5015 ft | 191 kts | 60° |
| 2026-05-09 14:27 | 46.22248 | -72.77845 | 5012 ft | 191 kts | 60° |
| 2026-05-09 14:27 | 46.22938 | -72.76206 | 5016 ft | 191 kts | 60° |
| 2026-05-09 14:27 | 46.23629 | -72.74563 | 5012 ft | 191 kts | 60° |
| 2026-05-09 14:28 | 46.24319 | -72.72923 | 5010 ft | 191 kts | 60° |
| 2026-05-09 14:28 | 46.25009 | -72.71279 | 5012 ft | 191 kts | 60° |
| 2026-05-09 14:28 | 46.25699 | -72.69637 | 5011 ft | 191 kts | 60° |
| 2026-05-09 14:28 | 46.26388 | -72.67994 | 5012 ft | 191 kts | 60° |
| 2026-05-09 14:29 | 46.27076 | -72.66352 | 5015 ft | 191 kts | 61° |
| 2026-05-09 14:29 | 46.27764 | -72.64711 | 5012 ft | 191 kts | 60° |
| 2026-05-09 14:29 | 46.28451 | -72.63072 | 5010 ft | 191 kts | 60° |
| 2026-05-09 14:29 | 46.29140 | -72.61425 | 5010 ft | 191 kts | 60° |
| 2026-05-09 14:30 | 46.29817 | -72.59801 | 5021 ft | 192 kts | 60° |
| 2026-05-09 14:30 | 46.30517 | -72.58133 | 5017 ft | 194 kts | 60° |
| 2026-05-09 14:30 | 46.31216 | -72.56463 | 5015 ft | 194 kts | 61° |
| 2026-05-09 14:30 | 46.31907 | -72.54802 | 5018 ft | 192 kts | 60° |
| 2026-05-09 14:31 | 46.32596 | -72.53153 | 5012 ft | 191 kts | 60° |
| 2026-05-09 14:31 | 46.33282 | -72.51514 | 5015 ft | 191 kts | 60° |
| 2026-05-09 14:31 | 46.33973 | -72.49873 | 5018 ft | 192 kts | 61° |
| 2026-05-09 14:31 | 46.34655 | -72.48204 | 5015 ft | 192 kts | 60° |
| 2026-05-09 14:32 | 46.35346 | -72.46556 | 5012 ft | 191 kts | 60° |
| 2026-05-09 14:32 | 46.36034 | -72.44905 | 5013 ft | 191 kts | 60° |
| 2026-05-09 14:32 | 46.36715 | -72.43257 | 5006 ft | 190 kts | 60° |
| 2026-05-09 14:32 | 46.37399 | -72.41614 | 5017 ft | 191 kts | 60° |
| 2026-05-09 14:33 | 46.38088 | -72.39961 | 5017 ft | 194 kts | 60° |
| 2026-05-09 14:33 | 46.38783 | -72.38283 | 5019 ft | 195 kts | 60° |
| 2026-05-09 14:33 | 46.39478 | -72.36606 | 5014 ft | 194 kts | 60° |
| 2026-05-09 14:33 | 46.40168 | -72.34943 | 5014 ft | 192 kts | 60° |
| 2026-05-09 14:34 | 46.40853 | -72.33292 | 5019 ft | 191 kts | 60° |
| 2026-05-09 14:34 | 46.41536 | -72.31644 | 5011 ft | 191 kts | 60° |
| 2026-05-09 14:34 | 46.42220 | -72.29991 | 5016 ft | 190 kts | 60° |
| 2026-05-09 14:34 | 46.42901 | -72.28345 | 5010 ft | 190 kts | 60° |
| 2026-05-09 14:35 | 46.43580 | -72.26700 | 5008 ft | 190 kts | 60° |
| 2026-05-09 14:35 | 46.44251 | -72.25078 | 5013 ft | 190 kts | 60° |
| 2026-05-09 14:35 | 46.44929 | -72.23433 | 5016 ft | 190 kts | 60° |
| 2026-05-09 14:35 | 46.45617 | -72.21769 | 5023 ft | 191 kts | 60° |
| 2026-05-09 14:36 | 46.46301 | -72.20112 | 5016 ft | 191 kts | 61° |
| 2026-05-09 14:36 | 46.46978 | -72.18464 | 5013 ft | 193 kts | 60° |
| 2026-05-09 14:36 | 46.47668 | -72.16792 | 5015 ft | 193 kts | 60° |
| 2026-05-09 14:36 | 46.48354 | -72.15120 | 5019 ft | 194 kts | 61° |
| 2026-05-09 14:37 | 46.49040 | -72.13450 | 5014 ft | 192 kts | 60° |
| 2026-05-09 14:37 | 46.49733 | -72.11783 | 5017 ft | 192 kts | 60° |
| 2026-05-09 14:37 | 46.50418 | -72.10107 | 5016 ft | 193 kts | 60° |
| 2026-05-09 14:37 | 46.51106 | -72.08423 | 5020 ft | 194 kts | 60° |
| 2026-05-09 14:38 | 46.51807 | -72.06744 | 5031 ft | 195 kts | 60° |
| 2026-05-09 14:38 | 46.52502 | -72.05055 | 5027 ft | 194 kts | 60° |
| 2026-05-09 14:38 | 46.53187 | -72.03355 | 5034 ft | 195 kts | 60° |
| 2026-05-09 14:38 | 46.53871 | -72.01639 | 5027 ft | 196 kts | 62° |
| 2026-05-09 14:39 | 46.54572 | -71.99946 | 5038 ft | 197 kts | 60° |
| 2026-05-09 14:39 | 46.55287 | -71.98245 | 5016 ft | 196 kts | 60° |
| 2026-05-09 14:39 | 46.55983 | -71.96544 | 5021 ft | 195 kts | 61° |
| 2026-05-09 14:39 | 46.56663 | -71.94849 | 5014 ft | 193 kts | 61° |
| 2026-05-09 14:40 | 46.57354 | -71.93165 | 5023 ft | 196 kts | 60° |
| 2026-05-09 14:40 | 46.58047 | -71.91464 | 5024 ft | 194 kts | 61° |
| 2026-05-09 14:40 | 46.58735 | -71.89781 | 5017 ft | 193 kts | 60° |
| 2026-05-09 14:40 | 46.59424 | -71.88093 | 5022 ft | 194 kts | 61° |
| 2026-05-09 14:41 | 46.60114 | -71.86403 | 5021 ft | 195 kts | 60° |
| 2026-05-09 14:41 | 46.60804 | -71.84708 | 5025 ft | 194 kts | 61° |
| 2026-05-09 14:41 | 46.61487 | -71.83014 | 5028 ft | 194 kts | 61° |
| 2026-05-09 14:41 | 46.62178 | -71.81317 | 5024 ft | 195 kts | 61° |
| 2026-05-09 14:42 | 46.62865 | -71.79626 | 5029 ft | 194 kts | 60° |
| 2026-05-09 14:42 | 46.63553 | -71.77945 | 5021 ft | 193 kts | 61° |
| 2026-05-09 14:42 | 46.64232 | -71.76274 | 5021 ft | 192 kts | 61° |
| 2026-05-09 14:42 | 46.64908 | -71.74604 | 5024 ft | 191 kts | 61° |
| 2026-05-09 14:43 | 46.65582 | -71.72939 | 5023 ft | 191 kts | 61° |
| 2026-05-09 14:43 | 46.66257 | -71.71272 | 5026 ft | 191 kts | 61° |
| 2026-05-09 14:43 | 46.66922 | -71.69628 | 5027 ft | 191 kts | 61° |
| 2026-05-09 14:43 | 46.67589 | -71.67908 | 5041 ft | 194 kts | 65° |
| 2026-05-09 14:44 | 46.68165 | -71.66157 | 5037 ft | 194 kts | 66° |
| 2026-05-09 14:44 | 46.68731 | -71.64372 | 5043 ft | 195 kts | 68° |
| 2026-05-09 14:44 | 46.69283 | -71.62574 | 5040 ft | 194 kts | 68° |
| 2026-05-09 14:44 | 46.69828 | -71.60783 | 5042 ft | 193 kts | 68° |
| 2026-05-09 14:45 | 46.70372 | -71.59015 | 4974 ft | 190 kts | 68° |
| 2026-05-09 14:45 | 46.70920 | -71.57238 | 4639 ft | 192 kts | 69° |
| 2026-05-09 14:45 | 46.71466 | -71.55460 | 4282 ft | 191 kts | 68° |
| 2026-05-09 14:45 | 46.72013 | -71.53703 | 3988 ft | 190 kts | 68° |
| 2026-05-09 14:46 | 46.72544 | -71.51948 | 3705 ft | 188 kts | 70° |
| 2026-05-09 14:46 | 46.73067 | -71.50207 | 3351 ft | 187 kts | 69° |
| 2026-05-09 14:46 | 46.73609 | -71.48482 | 3042 ft | 186 kts | 68° |
| 2026-05-09 14:46 | 46.74132 | -71.46786 | 2717 ft | 182 kts | 69° |
| 2026-05-09 14:47 | 46.74634 | -71.45116 | 2341 ft | 179 kts | 70° |
| 2026-05-09 14:47 | 46.75131 | -71.43471 | 2044 ft | 174 kts | 69° |
| 2026-05-09 14:47 | 46.75656 | -71.41973 | 2029 ft | 159 kts | 63° |
| 2026-05-09 14:47 | 46.76202 | -71.40619 | 2028 ft | 152 kts | 62° |
| 2026-05-09 14:48 | 46.76777 | -71.39291 | 1836 ft | 157 kts | 52° |
| 2026-05-09 14:48 | 46.77501 | -71.38103 | 1632 ft | 158 kts | 50° |
| 2026-05-09 14:48 | 46.78243 | -71.36922 | 1416 ft | 158 kts | 49° |
| 2026-05-09 14:48 | 46.78975 | -71.35772 | 1345 ft | 150 kts | 50° |
| 2026-05-09 14:49 | 46.79680 | -71.34647 | 1334 ft | 150 kts | 47° |
| 2026-05-09 14:49 | 46.80406 | -71.33589 | 1334 ft | 142 kts | 44° |
| 2026-05-09 14:49 | 46.81124 | -71.32591 | 1328 ft | 142 kts | 44° |
| 2026-05-09 14:49 | 46.81811 | -71.31607 | 1328 ft | 130 kts | 45° |
| 2026-05-09 14:50 | 46.82421 | -71.30752 | 1331 ft | 120 kts | 33° |
| 2026-05-09 14:50 | 46.83159 | -71.30684 | 1302 ft | 103 kts | 327° |
| 2026-05-09 14:50 | 46.83550 | -71.31347 | 1320 ft | 81 kts | 271° |
| 2026-05-09 14:50 | 46.83559 | -71.32254 | 1410 ft | 95 kts | 252° |
| 2026-05-09 14:51 | 46.83344 | -71.33173 | 1513 ft | 81 kts | 238° |
| 2026-05-09 14:51 | 46.82962 | -71.33779 | 1352 ft | 82 kts | 227° |
| 2026-05-09 14:51 | 46.82567 | -71.34360 | 1199 ft | 78 kts | 225° |
| 2026-05-09 14:51 | 46.82159 | -71.34892 | 1091 ft | 74 kts | 226° |
| 2026-05-09 14:52 | 46.81788 | -71.35425 | 922 ft | 79 kts | 234° |
| 2026-05-09 14:52 | 46.81427 | -71.36038 | 686 ft | 80 kts | 231° |
| 2026-05-09 14:52 | 46.81030 | -71.36591 | 626 ft | 82 kts | 221° |
| 2026-05-09 14:52 | 46.80630 | -71.37185 | 505 ft | 82 kts | 229° |
| 2026-05-09 14:53 | 46.80244 | -71.37751 | 332 ft | 75 kts | 226° |
| 2026-05-09 14:53 | 46.79887 | -71.38271 | 245 ft | 68 kts | 227° |
| 2026-05-09 14:53 | 46.79637 | -71.38631 | 242 ft | 25 kts | 227° |
| 2026-05-09 14:53 | 46.79554 | -71.38746 | 243 ft | 12 kts | 220° |
| 2026-05-09 14:54 | 46.79487 | -71.38725 | 242 ft | 11 kts | 109° |
| 2026-05-09 14:54 | 46.79466 | -71.38626 | 241 ft | 11 kts | 118° |
| 2026-05-09 14:54 | 46.79407 | -71.38574 | 240 ft | 9 kts | 150° |
| 2026-05-09 14:54 | 46.79325 | -71.38558 | 240 ft | 10 kts | 189° |
| 2026-05-09 14:55 | 46.79248 | -71.38579 | 240 ft | 9 kts | 191° |
| 2026-05-09 14:55 | 46.79186 | -71.38596 | 239 ft | 9 kts | 194° |
| 2026-05-09 14:55 | 46.79140 | -71.38551 | 239 ft | 8 kts | 105° |
| 2026-05-09 14:55 | 46.79132 | -71.38508 | 239 ft | 0 kts | 105° |